createdAt,value
2019-05-07T00:01:06.303Z,19.93
2019-05-07T00:03:32.982Z,19.87
2019-05-07T00:05:59.589Z,19.85
2019-05-07T00:08:26.290Z,19.83
2019-05-07T00:10:53.049Z,19.84
2019-05-07T00:13:19.597Z,19.84
2019-05-07T00:15:46.240Z,19.82
2019-05-07T00:20:39.684Z,19.81
2019-05-07T00:23:06.330Z,19.82
2019-05-07T00:25:33.069Z,19.80
2019-05-07T00:27:59.652Z,19.80
2019-05-07T00:30:26.303Z,19.78
2019-05-07T00:32:53.183Z,19.72
2019-05-07T00:35:19.616Z,19.74
2019-05-07T00:37:46.255Z,19.76
2019-05-07T00:40:13.053Z,19.73
2019-05-07T00:42:39.593Z,19.71
2019-05-07T00:45:16.955Z,19.72
2019-05-07T00:47:33.149Z,19.67
2019-05-07T00:49:59.517Z,19.70
2019-05-07T00:52:26.164Z,19.66
2019-05-07T00:54:53.165Z,19.64
2019-05-07T00:57:19.484Z,19.66
2019-05-07T00:59:46.115Z,19.63
2019-05-07T01:02:12.861Z,19.63
2019-05-07T01:04:39.411Z,19.63
2019-05-07T01:07:06.046Z,19.61
2019-05-07T01:09:32.696Z,19.62
2019-05-07T01:11:59.336Z,19.58
2019-05-07T01:14:25.990Z,19.55
2019-05-07T01:16:53.043Z,19.59
2019-05-07T01:19:19.313Z,19.62
2019-05-07T01:21:45.958Z,19.59
2019-05-07T01:24:12.645Z,19.55
2019-05-07T01:26:39.305Z,19.57
2019-05-07T01:29:05.997Z,19.57
2019-05-07T01:31:32.945Z,19.57
2019-05-07T01:33:59.266Z,19.57
2019-05-07T01:36:25.926Z,19.50
2019-05-07T01:38:52.568Z,19.58
2019-05-07T01:41:19.210Z,19.51
2019-05-07T01:43:45.909Z,19.49
2019-05-07T01:46:12.566Z,19.50
2019-05-07T01:48:39.212Z,19.44
2019-05-07T01:53:32.569Z,19.44
2019-05-07T01:55:59.180Z,19.40
2019-05-07T01:58:25.836Z,19.41
2019-05-07T02:00:53.205Z,19.45
2019-05-07T02:03:19.107Z,19.42
2019-05-07T02:05:45.798Z,19.40
2019-05-07T02:08:12.493Z,19.36
2019-05-07T02:10:39.143Z,19.38
2019-05-07T02:13:05.782Z,19.38
2019-05-07T02:15:32.507Z,19.40
2019-05-07T02:17:59.103Z,19.37
2019-05-07T02:20:25.782Z,19.40
2019-05-07T02:22:53.256Z,19.38
2019-05-07T02:25:19.064Z,19.33
2019-05-07T02:27:45.733Z,19.35
2019-05-07T02:30:14.752Z,19.35
2019-05-07T02:32:39.024Z,19.32
2019-05-07T02:35:05.673Z,19.34
2019-05-07T02:37:42.263Z,19.33
2019-05-07T02:39:58.999Z,19.31
2019-05-07T02:42:25.646Z,19.29
2019-05-07T02:44:52.971Z,19.29
2019-05-07T02:47:18.933Z,19.26
2019-05-07T02:49:45.591Z,19.25
2019-05-07T02:52:13.480Z,19.28
2019-05-07T02:54:38.959Z,19.26
2019-05-07T02:57:05.592Z,19.25
2019-05-07T02:59:33.696Z,19.23
2019-05-07T03:01:58.866Z,19.28
2019-05-07T03:04:25.540Z,19.21
2019-05-07T03:06:54.334Z,19.10
2019-05-07T03:09:18.824Z,18.76
2019-05-07T03:11:45.535Z,18.73
2019-05-07T03:14:14.052Z,18.69
2019-05-07T03:16:44.246Z,18.75
2019-05-07T03:19:05.485Z,18.72
2019-05-07T03:21:32.875Z,18.59
2019-05-07T03:23:58.774Z,18.69
2019-05-07T03:26:25.419Z,18.57
2019-05-07T03:28:53.565Z,18.78
2019-05-07T03:31:18.704Z,19.14
2019-05-07T03:33:47.185Z,19.54
2019-05-07T03:36:16.819Z,19.73
2019-05-07T03:38:38.666Z,19.89
2019-05-07T03:41:05.303Z,20.13
2019-05-07T03:43:32.554Z,20.26
2019-05-07T03:48:25.267Z,20.46
2019-05-07T03:50:52.912Z,20.71
2019-05-07T03:53:18.651Z,20.76
2019-05-07T03:55:45.280Z,20.65
2019-05-07T03:58:14.615Z,20.45
2019-05-07T04:00:38.599Z,20.34
2019-05-07T04:03:05.276Z,20.60
2019-05-07T04:05:34.233Z,20.72
2019-05-07T04:07:58.606Z,20.72
2019-05-07T04:10:25.247Z,20.80
2019-05-07T04:12:53.330Z,20.90
2019-05-07T04:15:19.503Z,21.03
2019-05-07T04:17:45.227Z,21.28
2019-05-07T04:20:13.511Z,21.24
2019-05-07T04:22:38.565Z,21.56
2019-05-07T04:25:05.210Z,21.49
2019-05-07T04:27:33.261Z,21.44
2019-05-07T04:32:25.181Z,21.52
2019-05-07T04:34:53.192Z,21.57
2019-05-07T04:37:18.517Z,21.64
2019-05-07T04:39:45.151Z,21.61
2019-05-07T04:42:13.273Z,21.61
2019-05-07T04:44:38.511Z,21.64
2019-05-07T04:47:05.135Z,21.67
2019-05-07T04:49:33.256Z,21.70
2019-05-07T04:51:58.464Z,21.74
2019-05-07T04:54:25.168Z,21.92
2019-05-07T04:56:53.214Z,21.98
2019-05-07T04:59:18.496Z,21.85
2019-05-07T05:01:45.186Z,21.89
2019-05-07T05:04:25.404Z,22.01
2019-05-07T05:06:38.791Z,22.18
2019-05-07T05:09:05.509Z,22.30
2019-05-07T05:11:33.517Z,22.43
2019-05-07T05:13:58.856Z,22.43
2019-05-07T05:16:25.545Z,22.45
2019-05-07T05:18:52.196Z,22.42
2019-05-07T05:21:18.835Z,22.40
2019-05-07T05:23:45.491Z,22.63
2019-05-07T05:26:12.593Z,22.64
2019-05-07T05:28:38.793Z,22.75
2019-05-07T05:31:05.472Z,22.75
2019-05-07T05:33:32.421Z,22.95
2019-05-07T05:35:58.790Z,22.96
2019-05-07T05:38:25.485Z,22.94
2019-05-07T05:40:52.305Z,23.01
2019-05-07T05:43:18.773Z,23.04
2019-05-07T05:45:45.442Z,23.26
2019-05-07T05:48:13.574Z,23.35
2019-05-07T05:50:38.777Z,23.44
2019-05-07T05:53:05.412Z,23.47
2019-05-07T05:55:32.236Z,23.61
2019-05-07T05:57:58.748Z,23.80
2019-05-07T06:00:25.394Z,23.77
2019-05-07T06:02:53.182Z,23.59
2019-05-07T06:05:18.733Z,23.76
2019-05-07T06:07:45.389Z,23.71
2019-05-07T06:10:12.889Z,23.55
2019-05-07T06:12:38.720Z,23.72
2019-05-07T06:15:05.370Z,23.65
2019-05-07T06:17:32.215Z,23.52
2019-05-07T06:19:58.673Z,23.38
2019-05-07T06:22:25.312Z,23.44
2019-05-07T06:24:52.109Z,23.46
2019-05-07T06:27:18.677Z,23.53
2019-05-07T06:29:45.317Z,23.60
2019-05-07T06:32:12.203Z,23.67
2019-05-07T06:37:05.300Z,23.75
2019-05-07T06:39:32.789Z,23.78
2019-05-07T06:41:58.619Z,23.85
2019-05-07T06:44:25.273Z,23.87
2019-05-07T06:46:55.043Z,23.75
2019-05-07T06:49:22.268Z,23.74
2019-05-07T06:51:48.397Z,23.81
2019-05-07T06:54:15.030Z,23.76
2019-05-07T06:56:42.176Z,23.76
2019-05-07T06:59:08.361Z,23.92
2019-05-07T07:01:35.009Z,23.78
2019-05-07T07:04:02.617Z,23.81
2019-05-07T07:06:28.291Z,23.78
2019-05-07T07:08:54.950Z,23.79
2019-05-07T07:11:22.416Z,23.70
2019-05-07T07:13:48.551Z,23.68
2019-05-07T07:16:15.234Z,23.82
2019-05-07T07:18:51.687Z,23.63
2019-05-07T07:23:35.170Z,23.72
2019-05-07T07:26:05.129Z,23.73
2019-05-07T07:28:32.684Z,23.67
2019-05-07T07:30:58.403Z,23.54
2019-05-07T07:33:25.063Z,23.56
2019-05-07T07:35:52.141Z,23.64
2019-05-07T07:38:18.377Z,23.61
2019-05-07T07:40:45.013Z,23.77
2019-05-07T07:43:12.915Z,23.65
2019-05-07T07:45:38.344Z,23.75
2019-05-07T07:48:05.002Z,23.90
2019-05-07T07:50:33.087Z,23.60
2019-05-07T07:52:58.281Z,23.64
2019-05-07T07:55:25.034Z,23.79
2019-05-07T07:57:52.115Z,23.90
2019-05-07T08:00:18.360Z,23.96
2019-05-07T08:05:12.511Z,23.78
2019-05-07T08:07:38.336Z,23.90
2019-05-07T08:10:04.981Z,23.84
2019-05-07T08:12:32.480Z,23.84
2019-05-07T08:15:13.331Z,23.85
2019-05-07T08:17:24.948Z,23.95
2019-05-07T08:19:52.061Z,24.03
2019-05-07T08:22:18.257Z,23.87
2019-05-07T08:24:44.902Z,23.76
2019-05-07T08:27:14.737Z,23.82
2019-05-07T08:29:38.180Z,23.70
2019-05-07T08:32:04.814Z,23.81
2019-05-07T08:34:32.502Z,23.84
2019-05-07T08:36:58.091Z,23.90
2019-05-07T08:39:25.385Z,23.85
2019-05-07T08:41:52.739Z,23.97
2019-05-07T08:44:18.467Z,23.80
2019-05-07T08:46:45.106Z,23.82
2019-05-07T08:49:12.096Z,23.74
2019-05-07T08:51:38.391Z,23.78
2019-05-07T08:54:08.160Z,23.84
2019-05-07T08:56:34.801Z,23.71
2019-05-07T08:59:02.089Z,23.78
2019-05-07T09:01:28.271Z,23.71
2019-05-07T09:03:54.915Z,23.72
2019-05-07T09:06:22.079Z,23.70
2019-05-07T09:11:14.918Z,23.71
2019-05-07T09:13:42.064Z,23.75
2019-05-07T09:16:08.241Z,23.73
2019-05-07T09:18:34.888Z,23.76
2019-05-07T09:21:02.190Z,23.81
2019-05-07T09:23:28.221Z,23.97
2019-05-07T09:25:55.008Z,23.87
2019-05-07T09:28:22.295Z,23.98
2019-05-07T09:30:48.326Z,23.93
2019-05-07T09:33:15.012Z,23.93
2019-05-07T09:35:42.771Z,24.04
2019-05-07T09:38:09.411Z,24.05
2019-05-07T09:40:38.169Z,23.96
2019-05-07T09:45:32.867Z,24.00
2019-05-07T09:47:58.157Z,23.96
2019-05-07T09:50:24.804Z,24.08
2019-05-07T09:52:51.954Z,24.00
2019-05-07T09:55:18.106Z,24.06
2019-05-07T09:57:44.788Z,23.99
2019-05-07T10:00:12.315Z,24.10
2019-05-07T10:02:38.121Z,24.09
2019-05-07T10:05:04.763Z,24.17
2019-05-07T10:07:32.495Z,24.05
2019-05-07T10:09:58.122Z,24.05
2019-05-07T10:12:24.763Z,24.03
2019-05-07T10:14:52.260Z,24.13
2019-05-07T10:17:18.038Z,24.09
2019-05-07T10:19:44.731Z,24.09
2019-05-07T10:22:12.637Z,23.98
2019-05-07T10:24:38.058Z,24.13
2019-05-07T10:27:04.708Z,24.05
2019-05-07T10:29:32.262Z,24.08
2019-05-07T10:31:58.027Z,24.02
2019-05-07T10:34:24.665Z,24.06
2019-05-07T10:36:52.364Z,24.06
2019-05-07T10:39:17.942Z,24.04
2019-05-07T10:41:44.632Z,24.03
2019-05-07T10:44:11.886Z,24.03
2019-05-07T10:46:37.939Z,24.01
2019-05-07T10:49:04.587Z,24.30
2019-05-07T10:51:32.151Z,24.14
2019-05-07T10:53:57.911Z,24.09
2019-05-07T10:56:24.598Z,24.09
2019-05-07T10:58:52.217Z,24.04
2019-05-07T11:03:44.630Z,24.13
2019-05-07T11:06:11.963Z,24.20
2019-05-07T11:08:37.923Z,24.20
2019-05-07T11:11:04.565Z,24.14
2019-05-07T11:13:31.251Z,24.18
2019-05-07T11:15:57.889Z,24.34
2019-05-07T11:18:24.581Z,24.32
2019-05-07T11:20:53.453Z,24.25
2019-05-07T11:23:17.866Z,24.23
2019-05-07T11:25:44.541Z,24.22
2019-05-07T11:28:12.358Z,24.15
2019-05-07T11:30:37.862Z,24.14
2019-05-07T11:33:04.521Z,24.16
2019-05-07T11:35:31.869Z,24.25
2019-05-07T11:37:57.874Z,24.24
2019-05-07T11:40:24.515Z,24.22
2019-05-07T11:42:51.957Z,24.33
2019-05-07T11:47:44.624Z,24.30
2019-05-07T11:50:11.977Z,24.16
2019-05-07T11:52:37.965Z,24.16
2019-05-07T11:55:04.620Z,24.04
2019-05-07T11:57:31.259Z,23.89
2019-05-07T11:59:57.921Z,23.70
2019-05-07T12:02:24.605Z,23.61
2019-05-07T12:04:52.638Z,23.58
2019-05-07T12:09:44.651Z,23.82
2019-05-07T12:12:12.746Z,23.97
2019-05-07T12:14:38.059Z,24.12
2019-05-07T12:17:04.704Z,24.06
2019-05-07T12:19:33.060Z,23.97
2019-05-07T12:21:58.003Z,23.90
2019-05-07T12:24:24.641Z,23.81
2019-05-07T12:26:52.247Z,23.73
2019-05-07T12:29:17.958Z,23.74
2019-05-07T12:31:44.593Z,23.72
2019-05-07T12:34:11.809Z,23.71
2019-05-07T12:36:37.917Z,23.71
2019-05-07T12:39:04.568Z,23.73
2019-05-07T12:41:33.897Z,23.71
2019-05-07T12:43:58.301Z,23.71
2019-05-07T12:46:24.948Z,23.81
2019-05-07T12:48:52.387Z,23.92
2019-05-07T12:51:30.535Z,23.78
2019-05-07T12:53:44.938Z,23.75
2019-05-07T12:56:11.588Z,23.97
2019-05-07T12:58:38.237Z,24.06
2019-05-07T13:01:04.989Z,24.01
2019-05-07T13:03:32.332Z,23.83
2019-05-07T13:05:58.343Z,23.90
2019-05-07T13:08:24.981Z,24.05
2019-05-07T13:10:51.951Z,24.10
2019-05-07T13:13:18.324Z,24.08
2019-05-07T13:15:44.976Z,24.04
2019-05-07T13:18:12.702Z,23.98
2019-05-07T13:20:38.342Z,23.98
2019-05-07T13:23:05.069Z,24.02
2019-05-07T13:25:32.386Z,24.00
2019-05-07T13:27:58.360Z,24.16
2019-05-07T13:30:25.011Z,23.99
2019-05-07T13:32:52.589Z,23.95
2019-05-07T13:35:18.314Z,23.99
2019-05-07T13:37:45.008Z,24.15
2019-05-07T13:40:11.741Z,24.10
2019-05-07T13:42:38.356Z,23.89
2019-05-07T13:45:04.976Z,23.85
2019-05-07T13:47:31.837Z,23.91
2019-05-07T13:49:58.545Z,24.07
2019-05-07T13:52:26.607Z,24.07
2019-05-07T13:54:52.612Z,23.86
2019-05-07T13:57:18.567Z,23.81
2019-05-07T13:59:45.247Z,23.71
2019-05-07T14:02:15.159Z,23.67
2019-05-07T14:04:38.528Z,23.65
2019-05-07T14:07:05.168Z,23.64
2019-05-07T14:11:58.480Z,23.59
2019-05-07T14:14:25.128Z,23.58
2019-05-07T14:16:53.066Z,23.55
2019-05-07T14:19:18.434Z,23.56
2019-05-07T14:21:45.133Z,23.55
2019-05-07T14:24:12.304Z,23.60
2019-05-07T14:26:38.424Z,23.52
2019-05-07T14:29:05.077Z,23.57
2019-05-07T14:31:33.673Z,23.51
2019-05-07T14:33:58.361Z,23.52
2019-05-07T14:36:25.060Z,23.51
2019-05-07T14:38:52.074Z,23.49
2019-05-07T14:41:18.354Z,23.49
2019-05-07T14:43:45.004Z,23.46
2019-05-07T14:46:12.075Z,23.45
2019-05-07T14:48:38.367Z,23.44
2019-05-07T14:51:05.001Z,23.49
2019-05-07T14:53:32.807Z,23.48
2019-05-07T14:55:58.276Z,23.45
2019-05-07T14:58:24.957Z,23.43
2019-05-07T15:00:51.920Z,23.42
2019-05-07T15:03:18.240Z,23.41
2019-05-07T15:08:14.154Z,23.38
2019-05-07T15:10:38.246Z,23.39
2019-05-07T15:13:04.928Z,23.37
2019-05-07T15:15:31.581Z,23.36
2019-05-07T15:17:58.220Z,23.35
2019-05-07T15:20:24.876Z,23.34
2019-05-07T15:22:52.678Z,23.30
2019-05-07T15:25:18.171Z,23.32
2019-05-07T15:27:44.842Z,23.30
2019-05-07T15:30:11.537Z,23.34
2019-05-07T15:32:38.172Z,23.29
2019-05-07T15:35:04.813Z,23.28
2019-05-07T15:37:32.185Z,23.28
2019-05-07T15:39:58.088Z,23.34
2019-05-07T15:42:24.738Z,23.27
2019-05-07T15:44:52.928Z,23.30
2019-05-07T15:47:22.889Z,23.27
2019-05-07T15:49:49.624Z,23.32
2019-05-07T15:52:16.418Z,23.26
2019-05-07T16:02:32.338Z,23.24
2019-05-07T16:04:58.745Z,23.25
2019-05-07T16:07:25.690Z,23.22
2019-05-07T16:09:52.695Z,23.26
2019-05-07T16:12:19.363Z,23.25
2019-05-07T16:14:46.104Z,23.25
2019-05-07T16:17:19.453Z,23.19
2019-05-07T16:19:46.338Z,23.25
2019-05-07T16:25:18.155Z,23.23
2019-05-07T16:27:44.800Z,23.18
2019-05-07T16:30:13.967Z,23.26
2019-05-07T16:32:38.096Z,23.22
2019-05-07T16:35:05.656Z,23.21
2019-05-07T16:37:32.254Z,23.16
2019-05-07T16:39:58.061Z,23.26
2019-05-07T16:42:24.696Z,23.26
2019-05-07T16:44:52.299Z,23.35
2019-05-07T16:47:18.003Z,23.34
2019-05-07T16:49:44.657Z,23.40
2019-05-07T16:52:11.973Z,23.38
2019-05-07T16:54:37.978Z,23.46
2019-05-07T16:57:04.615Z,23.41
2019-05-07T16:59:32.325Z,23.44
2019-05-07T17:01:57.917Z,23.43
2019-05-07T17:04:25.674Z,23.46
2019-05-07T17:06:52.161Z,23.44
2019-05-07T17:11:44.570Z,23.48
2019-05-07T17:14:12.929Z,23.50
2019-05-07T17:16:37.893Z,23.49
2019-05-07T17:19:04.539Z,23.50
2019-05-07T17:21:32.449Z,23.48
2019-05-07T17:23:57.833Z,23.51
2019-05-07T17:26:24.470Z,23.49
2019-05-07T17:28:52.074Z,23.52
2019-05-07T17:31:17.784Z,23.51
2019-05-07T17:33:44.449Z,23.66
2019-05-07T17:36:12.043Z,23.58
2019-05-07T17:38:37.736Z,23.57
2019-05-07T17:41:13.701Z,23.53
2019-05-07T17:43:32.515Z,23.57
2019-05-07T17:45:57.807Z,23.53
2019-05-07T17:48:24.456Z,23.56
2019-05-07T17:50:51.091Z,23.55
2019-05-07T17:53:17.741Z,23.58
2019-05-07T17:55:44.381Z,23.54
2019-05-07T17:58:12.902Z,23.56
2019-05-07T18:00:37.727Z,23.55
2019-05-07T18:03:04.366Z,23.54
2019-05-07T18:05:31.760Z,23.57
2019-05-07T18:07:57.683Z,23.60
2019-05-07T18:10:24.336Z,23.59
2019-05-07T18:12:53.328Z,23.60
2019-05-07T18:15:17.622Z,23.62
2019-05-07T18:17:44.274Z,23.61
2019-05-07T18:20:12.738Z,23.61
2019-05-07T18:22:37.574Z,23.58
2019-05-07T18:25:04.223Z,23.59
2019-05-07T18:27:32.851Z,23.60
2019-05-07T18:29:57.516Z,23.60
2019-05-07T18:32:24.162Z,23.58
2019-05-07T18:34:51.990Z,23.59
2019-05-07T18:37:19.463Z,23.56
2019-05-07T18:39:44.116Z,23.58
2019-05-07T18:42:12.556Z,23.54
2019-05-07T18:44:37.422Z,23.60
2019-05-07T18:47:04.065Z,23.57
2019-05-07T18:51:57.370Z,23.57
2019-05-07T18:54:30.481Z,23.61
2019-05-07T18:56:52.712Z,23.60
2019-05-07T18:59:17.329Z,23.65
2019-05-07T19:01:43.967Z,23.60
2019-05-07T19:04:12.689Z,23.61
2019-05-07T19:06:37.302Z,23.59
2019-05-07T19:09:03.941Z,23.61
2019-05-07T19:11:32.157Z,23.62
2019-05-07T19:13:57.409Z,23.61
2019-05-07T19:16:23.964Z,23.61
2019-05-07T19:18:50.603Z,23.61
2019-05-07T19:21:17.386Z,23.59
2019-05-07T19:23:44.038Z,23.58
2019-05-07T19:26:12.849Z,23.57
2019-05-07T19:28:37.390Z,23.59
2019-05-07T19:31:04.013Z,23.56
2019-05-07T19:33:32.511Z,23.58
2019-05-07T19:35:57.308Z,23.59
2019-05-07T19:38:23.995Z,23.61
2019-05-07T19:40:52.614Z,23.59
2019-05-07T19:43:17.273Z,23.61
2019-05-07T19:48:12.400Z,23.64
2019-05-07T19:50:37.218Z,23.60
2019-05-07T19:53:03.920Z,23.64
2019-05-07T19:55:32.710Z,23.61
2019-05-07T19:57:57.213Z,23.54
2019-05-07T20:00:23.858Z,23.27
2019-05-07T20:02:52.583Z,23.13
2019-05-07T20:05:17.186Z,22.97
2019-05-07T20:07:43.834Z,23.01
2019-05-07T20:10:12.117Z,23.25
2019-05-07T20:12:37.165Z,23.31
2019-05-07T20:15:03.815Z,23.39
2019-05-07T20:17:33.033Z,23.45
2019-05-07T20:19:57.104Z,23.53
2019-05-07T20:22:23.754Z,23.54
2019-05-07T20:24:52.573Z,23.54
2019-05-07T20:27:17.051Z,23.57
2019-05-07T20:29:43.706Z,23.53
2019-05-07T20:32:10.362Z,23.53
2019-05-07T20:34:37.050Z,23.59
2019-05-07T20:37:03.712Z,23.55
2019-05-07T20:39:32.248Z,23.54
2019-05-07T20:41:57.047Z,23.52
2019-05-07T20:44:23.734Z,23.54
2019-05-07T20:46:50.375Z,23.51
2019-05-07T20:49:17.015Z,23.56
2019-05-07T20:51:43.675Z,23.51
2019-05-07T20:54:12.330Z,23.53
2019-05-07T20:56:36.973Z,23.52
2019-05-07T20:59:03.666Z,23.55
2019-05-07T21:01:32.296Z,23.49
2019-05-07T21:06:23.628Z,23.53
2019-05-07T21:08:50.269Z,23.51
2019-05-07T21:11:16.974Z,23.52
2019-05-07T21:16:12.475Z,23.56
2019-05-07T21:18:36.935Z,23.53
2019-05-07T21:21:03.587Z,23.52
2019-05-07T21:23:32.418Z,23.52
2019-05-07T21:25:56.894Z,23.56
2019-05-07T21:28:23.538Z,23.53
2019-05-07T21:30:52.231Z,23.60
2019-05-07T21:33:16.821Z,23.54
2019-05-07T21:35:43.469Z,23.55
2019-05-07T21:38:12.489Z,23.54
2019-05-07T21:40:36.806Z,23.56
2019-05-07T21:43:03.453Z,23.53
2019-05-07T21:45:30.195Z,23.60
2019-05-07T21:47:56.877Z,23.57
2019-05-07T21:50:23.513Z,23.60
2019-05-07T21:52:51.470Z,23.55
2019-05-07T21:55:16.853Z,23.58
2019-05-07T21:57:43.501Z,23.58
2019-05-07T22:00:12.483Z,23.59
2019-05-07T22:02:38.169Z,23.61
2019-05-07T22:05:03.470Z,23.56
2019-05-07T22:07:30.127Z,23.56
2019-05-07T22:09:56.790Z,23.58
2019-05-07T22:12:23.447Z,23.59
2019-05-07T22:14:50.089Z,23.56
2019-05-07T22:17:16.739Z,23.58
2019-05-07T22:19:43.474Z,23.60
2019-05-07T22:22:12.241Z,23.60
2019-05-07T22:24:36.776Z,23.61
2019-05-07T22:27:04.223Z,23.59
2019-05-07T22:29:30.155Z,23.61
2019-05-07T22:34:23.456Z,23.61
2019-05-07T22:36:52.107Z,23.59
2019-05-07T22:39:16.737Z,23.60
2019-05-07T22:41:43.445Z,23.59
2019-05-07T22:44:12.041Z,23.59
2019-05-07T22:46:36.751Z,23.59
2019-05-07T22:49:03.438Z,23.58
2019-05-07T22:51:30.203Z,23.58
2019-05-07T22:56:34.198Z,23.63
2019-05-07T22:58:50.169Z,23.62
2019-05-07T23:01:16.847Z,23.60
2019-05-07T23:03:43.494Z,23.61
2019-05-07T23:06:12.210Z,23.59
2019-05-07T23:08:36.811Z,23.61
2019-05-07T23:11:03.508Z,23.57
2019-05-07T23:13:31.843Z,23.60
2019-05-07T23:15:56.798Z,23.57
2019-05-07T23:18:23.435Z,23.61
2019-05-07T23:20:50.090Z,23.55
2019-05-07T23:23:16.732Z,23.62
2019-05-07T23:25:43.382Z,23.59
2019-05-07T23:28:12.422Z,23.60
2019-05-07T23:30:36.680Z,23.62
2019-05-07T23:33:03.475Z,23.60
2019-05-07T23:35:30.088Z,23.59
2019-05-07T23:37:56.739Z,23.62
2019-05-07T23:40:23.404Z,23.68
2019-05-07T23:42:52.182Z,23.60
2019-05-07T23:45:16.841Z,23.66
2019-05-07T23:47:44.678Z,23.60
2019-05-07T23:52:36.797Z,23.58
2019-05-07T23:55:03.442Z,23.60
2019-05-07T23:57:32.344Z,23.61
2019-05-07T23:59:56.789Z,23.59
